Time;durP1;ratioP1;P1;durP2;ratioP2;P2;SDS_P1;SDS_P2;PMS_P1;PMS_P2;Temp;Humidity;BMP_temperature;BMP_pressure;BME280_temperature;BME280_humidity;BME280_pressure;Samples;Min_cycle;Max_cycle;Signal;HPM_P1;HPM_P2
2022/07/15 04:31:16;;;;;;;;;4.00;4.00;;;;;24.62;41.75;101931.97;5083925;27;45469;-76
2022/07/15 04:33:41;;;;;;;;;4.00;4.00;;;;;24.61;41.71;101941.13;5061810;28;48120;-80
2022/07/15 04:36:07;;;;;;;;;5.00;3.00;;;;;24.65;41.32;101933.53;5060483;28;46240;-77
2022/07/15 04:38:32;;;;;;;;;3.00;3.00;;;;;24.77;41.08;101934.22;5056932;27;45427;-78
2022/07/15 04:40:58;;;;;;;;;3.00;3.00;;;;;24.90;40.69;101936.63;5063046;28;45619;-78
2022/07/15 04:43:24;;;;;;;;;3.00;3.00;;;;;25.02;40.33;101930.00;5065142;27;45602;-78
2022/07/15 04:45:50;;;;;;;;;3.00;3.00;;;;;25.17;40.10;101934.94;5060876;27;45514;-79
2022/07/15 04:50:59;;;;;;;;;4.00;4.00;;;;;25.49;39.59;101942.59;5066436;28;45773;-80
2022/07/15 04:53:25;;;;;;;;;3.33;3.33;;;;;25.60;39.13;101947.00;5068092;27;45470;-79
2022/07/15 04:55:50;;;;;;;;;5.67;3.67;;;;;25.68;39.23;101946.25;5061771;28;45514;-79
2022/07/15 04:58:16;;;;;;;;;4.33;3.00;;;;;25.82;38.70;101944.84;5067916;27;45477;-80
2022/07/15 05:00:45;;;;;;;;;3.67;3.67;;;;;25.94;38.77;101955.50;5058639;27;47129;-81
2022/07/15 05:03:11;;;;;;;;;3.67;3.67;;;;;26.02;38.88;101958.28;5061643;28;45495;-78
2022/07/15 05:05:37;;;;;;;;;3.67;3.67;;;;;26.10;38.35;101961.06;5061217;28;45758;-80
2022/07/15 05:08:03;;;;;;;;;4.33;3.67;;;;;26.17;37.78;101956.69;5068039;27;45508;-78
2022/07/15 05:10:28;;;;;;;;;2.00;2.00;;;;;26.18;37.62;101953.00;5063822;28;46833;-78
2022/07/15 05:12:54;;;;;;;;;5.00;5.00;;;;;26.29;37.79;101967.38;5070821;27;45952;-77
2022/07/15 05:15:19;;;;;;;;;3.67;3.67;;;;;26.36;37.46;101962.16;5069864;28;45857;-77
2022/07/15 05:17:45;;;;;;;;;4.33;3.00;;;;;26.39;37.58;101961.84;5070930;27;45362;-77
2022/07/15 05:20:10;;;;;;;;;2.67;2.67;;;;;26.47;37.52;101963.75;5057438;28;46075;-77
2022/07/15 05:22:36;;;;;;;;;5.67;4.67;;;;;26.48;37.37;101973.66;5067781;27;45716;-79
2022/07/15 05:25:01;;;;;;;;;4.00;4.00;;;;;26.47;37.10;101972.78;5070506;27;45918;-77
2022/07/15 05:27:26;;;;;;;;;4.00;4.00;;;;;26.50;37.12;101968.91;5066760;27;45463;-80
2022/07/15 05:29:52;;;;;;;;;4.00;4.00;;;;;26.52;36.76;101956.81;5062477;27;45531;-73
2022/07/15 05:32:17;;;;;;;;;3.33;3.33;;;;;26.60;36.89;101972.34;5069554;28;46337;-75
2022/07/15 05:34:42;;;;;;;;;2.33;2.33;;;;;26.62;37.13;101972.22;5067561;27;45514;-75
2022/07/15 05:37:08;;;;;;;;;4.00;4.00;;;;;26.69;37.04;101986.91;5069767;27;45360;-76
2022/07/15 05:39:34;;;;;;;;;5.00;5.00;;;;;26.68;36.25;101980.59;5066610;28;45482;-76
2022/07/15 05:41:59;;;;;;;;;5.67;3.00;;;;;26.73;36.70;101982.00;5060044;27;46477;-75
2022/07/15 05:44:25;;;;;;;;;3.00;3.00;;;;;26.80;36.20;101980.31;5057056;28;45320;-75
2022/07/15 05:46:50;;;;;;;;;2.67;2.67;;;;;26.86;36.17;101987.00;5056731;28;45478;-75
2022/07/15 05:49:16;;;;;;;;;4.00;4.00;;;;;26.90;36.25;101982.94;5051085;28;46058;-75
2022/07/15 05:51:41;;;;;;;;;5.00;5.00;;;;;26.94;35.99;101992.53;5055711;28;45704;-75
2022/07/15 05:54:06;;;;;;;;;3.00;3.00;;;;;26.96;36.37;101985.91;5054692;28;45498;-74
2022/07/15 05:56:32;;;;;;;;;2.00;2.00;;;;;27.07;36.44;101994.81;5052153;28;45273;-75
2022/07/15 05:58:57;;;;;;;;;4.00;4.00;;;;;27.15;35.79;101989.41;5054271;28;46317;-75
2022/07/15 06:01:23;;;;;;;;;3.00;3.00;;;;;27.26;35.98;101992.84;5051054;28;45364;-76
2022/07/15 06:03:49;;;;;;;;;5.00;3.00;;;;;27.31;35.75;101998.66;5068846;28;45530;-76
2022/07/15 06:06:14;;;;;;;;;5.33;4.00;;;;;27.34;36.14;101998.34;5056570;28;45567;-75
2022/07/15 06:08:39;;;;;;;;;5.00;5.00;;;;;27.34;36.22;102012.81;5046298;28;45538;-76
2022/07/15 06:11:05;;;;;;;;;2.33;2.33;;;;;27.29;35.59;102007.00;5055048;28;45400;-76
2022/07/15 06:13:30;;;;;;;;;4.33;4.33;;;;;27.29;36.18;102017.03;5054044;28;45482;-76
2022/07/15 06:15:56;;;;;;;;;5.00;5.00;;;;;27.26;35.56;102011.94;5056227;28;45778;-76
2022/07/15 06:18:21;;;;;;;;;4.67;4.67;;;;;27.24;35.55;102017.53;5054383;28;47200;-76
2022/07/15 06:20:47;;;;;;;;;4.67;4.67;;;;;27.20;35.42;102019.75;5051469;28;45419;-76
2022/07/15 06:23:12;;;;;;;;;5.33;3.67;;;;;27.16;35.90;102022.94;5055262;28;45531;-75
2022/07/15 06:25:37;;;;;;;;;5.00;5.00;;;;;27.12;36.31;102027.00;5056435;28;45332;-76
2022/07/15 06:28:03;;;;;;;;;4.33;4.33;;;;;27.07;36.10;102019.34;5047188;28;46358;-76
2022/07/15 06:30:29;;;;;;;;;4.00;4.00;;;;;27.02;36.33;102027.13;5055739;28;45671;-76
2022/07/15 06:32:54;;;;;;;;;6.00;5.00;;;;;26.98;35.88;102021.16;5056031;28;45454;-76
2022/07/15 06:35:20;;;;;;;;;4.00;4.00;;;;;26.96;36.21;102017.72;5052666;28;45995;-75
2022/07/15 06:37:46;;;;;;;;;3.67;3.67;;;;;26.96;35.98;102023.19;5050554;28;46999;-77
2022/07/15 06:40:11;;;;;;;;;3.67;3.67;;;;;26.91;36.53;102014.59;5052626;28;45483;-78
2022/07/15 06:42:38;;;;;;;;;5.67;4.67;;;;;26.93;36.23;102018.91;5056037;28;45536;-76
2022/07/15 06:45:05;;;;;;;;;5.00;5.00;;;;;26.95;35.82;102019.63;5055334;28;45414;-75
2022/07/15 06:47:31;;;;;;;;;5.33;4.33;;;;;27.01;36.71;102023.53;5052048;28;45826;-75
2022/07/15 06:49:56;;;;;;;;;5.00;5.00;;;;;27.01;35.92;102025.44;5055239;28;45419;-75
2022/07/15 06:52:22;;;;;;;;;5.00;4.67;;;;;26.99;35.96;102019.28;5051842;28;45869;-76
2022/07/15 06:54:47;;;;;;;;;5.33;5.33;;;;;27.05;36.45;102024.09;5049840;28;49268;-75
2022/07/15 06:57:14;;;;;;;;;8.00;6.00;;;;;27.07;36.39;102035.69;5049851;28;46144;-75
2022/07/15 06:59:39;;;;;;;;;4.00;3.67;;;;;27.09;36.25;102031.78;5052399;28;45594;-74
2022/07/15 07:02:05;;;;;;;;;4.67;4.67;;;;;27.12;36.61;102024.28;5052790;28;45473;-75
2022/07/15 07:04:31;;;;;;;;;5.33;5.00;;;;;27.12;36.03;102021.56;5052388;28;45432;-74
2022/07/15 07:06:56;;;;;;;;;4.00;4.00;;;;;27.08;36.74;102019.19;5042079;28;45540;-75
2022/07/15 07:09:21;;;;;;;;;5.33;5.00;;;;;27.05;36.33;102026.81;5053350;28;45410;-74
2022/07/15 07:11:47;;;;;;;;;5.67;5.00;;;;;27.06;36.67;102023.91;5047978;28;45458;-75
2022/07/15 07:14:13;;;;;;;;;5.00;5.00;;;;;27.06;36.73;102023.06;5044976;28;45471;-75
2022/07/15 07:16:38;;;;;;;;;3.67;3.33;;;;;27.09;36.32;102022.72;5053512;28;47193;-75
2022/07/15 07:19:03;;;;;;;;;7.67;7.00;;;;;27.08;36.29;102021.03;5046254;28;45359;-75
2022/07/15 07:21:29;;;;;;;;;5.00;5.00;;;;;27.04;36.30;102014.19;5055075;28;45328;-74
2022/07/15 07:23:54;;;;;;;;;3.67;3.67;;;;;27.02;36.24;102021.69;5046022;28;45382;-75
2022/07/15 07:26:20;;;;;;;;;3.67;3.67;;;;;26.96;36.08;102018.59;5054318;28;46929;-74
2022/07/15 07:28:46;;;;;;;;;3.33;3.33;;;;;26.94;35.82;102012.44;5052569;28;45550;-74
2022/07/15 07:31:13;;;;;;;;;5.00;4.00;;;;;26.95;35.97;102021.47;5054308;28;45401;-75
2022/07/15 07:33:39;;;;;;;;;3.00;3.00;;;;;26.97;35.51;102016.72;5048842;28;45436;-75
2022/07/15 07:36:06;;;;;;;;;4.33;4.33;;;;;26.95;35.75;102014.16;5053208;28;45443;-75
2022/07/15 07:38:32;;;;;;;;;5.00;4.33;;;;;27.00;35.42;102013.66;5041092;28;45376;-75
2022/07/15 07:40:57;;;;;;;;;6.00;6.00;;;;;26.99;35.94;102013.81;5055659;28;45742;-74
2022/07/15 07:43:23;;;;;;;;;6.67;5.33;;;;;26.97;35.71;102016.72;5046883;28;45471;-74
2022/07/15 07:45:50;;;;;;;;;5.33;5.00;;;;;26.98;36.07;102010.28;5053020;28;46270;-73
2022/07/15 07:48:16;;;;;;;;;6.00;4.67;;;;;26.99;35.63;102005.66;5051396;28;45504;-73
2022/07/15 07:50:42;;;;;;;;;4.33;4.33;;;;;26.97;35.41;102005.81;5049238;28;45418;-73
2022/07/15 07:53:08;;;;;;;;;4.00;4.00;;;;;26.96;35.78;102009.56;5043767;28;45684;-75
2022/07/15 07:55:33;;;;;;;;;2.00;2.00;;;;;26.98;35.12;102007.53;5046310;28;46269;-74
2022/07/15 07:58:00;;;;;;;;;4.00;4.00;;;;;26.98;35.26;102009.41;5051747;28;45289;-73
2022/07/15 08:00:27;;;;;;;;;2.00;2.00;;;;;26.93;34.54;101997.13;5047130;28;45501;-74
2022/07/15 08:02:54;;;;;;;;;3.33;3.33;;;;;26.89;34.38;101989.41;5053020;28;45368;-74
2022/07/15 08:05:20;;;;;;;;;3.00;3.00;;;;;26.88;34.64;101993.13;5054826;28;46139;-75
2022/07/15 08:07:46;;;;;;;;;2.33;2.33;;;;;26.93;33.98;101999.84;5046938;28;45494;-74
2022/07/15 08:10:12;;;;;;;;;4.00;4.00;;;;;26.93;33.89;101994.38;5049441;28;45289;-75
2022/07/15 08:12:38;;;;;;;;;5.00;3.00;;;;;26.95;34.45;101991.50;5039853;28;45431;-76
2022/07/15 08:15:13;;;;;;;;;3.00;3.00;;;;;26.99;34.85;101987.44;5045364;28;45692;-76
2022/07/15 08:17:40;;;;;;;;;4.00;4.00;;;;;26.99;34.42;101994.75;5044549;28;45425;-75
2022/07/15 08:20:07;;;;;;;;;3.33;2.00;;;;;26.98;34.80;101991.19;5048914;28;45585;-75
2022/07/15 08:22:33;;;;;;;;;2.00;2.00;;;;;27.01;34.49;101987.28;5045940;28;45806;-75
2022/07/15 08:24:58;;;;;;;;;4.67;3.67;;;;;26.95;34.61;101986.94;5046920;28;47663;-76
2022/07/15 08:27:24;;;;;;;;;3.00;3.00;;;;;26.91;34.16;101985.50;5051558;28;45386;-77
2022/07/15 08:29:49;;;;;;;;;3.33;3.33;;;;;26.86;34.24;101987.00;5048799;28;45691;-75
2022/07/15 08:32:14;;;;;;;;;4.00;3.00;;;;;26.90;34.17;101989.25;5046985;28;46057;-76
2022/07/15 08:34:41;;;;;;;;;3.00;3.00;;;;;26.98;33.92;101993.06;5053121;28;45328;-74
2022/07/15 08:37:07;;;;;;;;;6.33;3.33;;;;;27.05;33.73;101984.06;5052938;28;45457;-75
2022/07/15 08:39:32;;;;;;;;;3.67;3.00;;;;;27.12;34.06;101987.00;5050047;28;45327;-74
2022/07/15 08:41:58;;;;;;;;;3.00;3.00;;;;;27.14;33.40;101990.41;5051061;28;45428;-75
2022/07/15 08:44:24;;;;;;;;;3.33;3.33;;;;;27.16;33.89;101982.06;5041394;28;45415;-75
2022/07/15 08:46:49;;;;;;;;;4.00;3.33;;;;;27.16;33.71;101985.66;5051700;28;45425;-75
2022/07/15 08:49:18;;;;;;;;;3.67;2.00;;;;;27.20;33.21;101978.00;5052087;28;45425;-80
2022/07/15 08:51:46;;;;;;;;;3.00;2.33;;;;;27.23;33.33;101986.69;5045911;28;45469;-74
2022/07/15 08:54:13;;;;;;;;;3.00;3.00;;;;;27.29;33.03;101981.59;5048662;28;45430;-77
2022/07/15 08:56:39;;;;;;;;;4.00;3.33;;;;;27.35;32.92;101986.41;5050787;28;45388;-75
2022/07/15 08:59:06;;;;;;;;;2.00;2.00;;;;;27.43;33.52;101988.31;5054482;28;45355;-78
2022/07/15 09:01:33;;;;;;;;;4.00;2.00;;;;;27.47;32.86;101976.91;5046326;28;45390;-76
2022/07/15 09:03:59;;;;;;;;;3.00;3.00;;;;;27.56;33.32;101987.84;5045175;28;46878;-76
2022/07/15 09:06:51;;;;;;;;;3.00;3.00;;;;;27.64;32.71;101984.31;5047995;28;45422;-76
2022/07/15 09:09:28;;;;;;;;;3.00;3.00;;;;;27.68;32.78;101977.50;5053760;28;45534;-76
2022/07/15 09:12:05;;;;;;;;;3.33;2.67;;;;;27.67;32.53;101965.72;5049091;28;45520;-75
2022/07/15 09:14:33;;;;;;;;;5.00;4.67;;;;;27.68;32.94;101972.06;5052103;28;46156;-77
2022/07/15 09:17:09;;;;;;;;;4.67;4.67;;;;;27.72;33.06;101970.69;5041929;28;45388;-76
2022/07/15 09:19:59;;;;;;;;;5.00;5.00;;;;;27.76;32.55;101974.81;5054380;28;45706;-75
2022/07/15 09:22:27;;;;;;;;;4.33;4.33;;;;;27.78;32.95;101972.75;5051721;28;45558;-75
2022/07/15 09:25:04;;;;;;;;;6.00;4.33;;;;;27.81;32.50;101975.16;5054323;28;45569;-73
2022/07/15 09:27:32;;;;;;;;;3.00;3.00;;;;;27.84;32.57;101971.22;5052943;28;45474;-74
2022/07/15 09:36:20;;;;;;;;;5.33;3.67;;;;;28.00;31.59;101959.50;5038977;28;45470;-78
2022/07/15 09:38:49;;;;;;;;;7.33;2.00;;;;;28.03;31.97;101953.66;5045683;28;45550;-76
2022/07/15 09:41:27;;;;;;;;;4.00;3.00;;;;;28.07;31.74;101967.84;5057780;28;45530;-76
2022/07/15 09:43:59;;;;;;;;;3.33;2.00;;;;;28.10;31.92;101971.09;5041793;28;45450;-76
2022/07/15 09:46:43;;;;;;;;;3.00;3.00;;;;;28.17;31.32;101971.25;5047663;28;46384;-74
2022/07/15 09:49:09;;;;;;;;;3.00;3.00;;;;;28.25;31.93;101970.44;5044610;28;45438;-74
2022/07/15 09:51:55;;;;;;;;;4.00;4.00;;;;;28.32;31.01;101967.88;5050475;28;45423;-78
2022/07/15 09:54:25;;;;;;;;;1.33;1.33;;;;;28.41;31.60;101964.94;5054070;28;45575;-76
2022/07/15 09:56:52;;;;;;;;;3.67;3.00;;;;;28.50;31.72;101964.94;5057186;28;46187;-82
2022/07/15 09:59:18;;;;;;;;;4.33;3.33;;;;;28.56;31.06;101961.50;5044593;28;45423;-77
2022/07/15 10:01:47;;;;;;;;;3.00;3.00;;;;;28.61;30.38;101970.03;5057252;28;45383;-81
2022/07/15 10:04:15;;;;;;;;;3.33;3.33;;;;;28.69;30.07;101965.59;5053740;28;45331;-74
2022/07/15 10:06:42;;;;;;;;;5.67;3.67;;;;;28.72;30.68;101968.81;5055334;28;45446;-78
2022/07/15 10:09:09;;;;;;;;;4.00;2.00;;;;;28.75;30.29;101960.28;5054685;28;45300;-77
2022/07/15 10:11:43;;;;;;;;;3.00;3.00;;;;;28.78;30.14;101965.38;5042239;28;45579;-76
2022/07/15 10:14:38;;;;;;;;;2.00;2.00;;;;;28.85;30.74;101959.25;5042893;28;45439;-76
2022/07/15 10:17:04;;;;;;;;;3.00;3.00;;;;;28.92;30.52;101965.72;5061303;28;46322;-76
2022/07/15 10:19:51;;;;;;;;;3.00;2.00;;;;;29.00;30.17;101959.38;5052939;28;46199;-78
2022/07/15 10:22:34;;;;;;;;;1.00;1.00;;;;;29.06;30.13;101956.78;5038091;28;45973;-77
2022/07/15 10:25:12;;;;;;;;;2.00;2.00;;;;;29.14;30.03;101952.34;5051660;28;45570;-77
2022/07/15 10:27:52;;;;;;;;;2.67;2.67;;;;;29.20;30.71;101954.34;5052294;28;46794;-77
2022/07/15 10:30:23;;;;;;;;;2.33;2.33;;;;;29.22;30.34;101941.34;5051396;28;45388;-77
2022/07/15 10:33:03;;;;;;;;;1.00;1.00;;;;;29.26;30.22;101941.84;5052306;28;45491;-77
2022/07/15 10:35:45;;;;;;;;;2.00;2.00;;;;;29.29;30.33;101936.00;5044951;28;45507;-77
2022/07/15 10:38:27;;;;;;;;;2.00;2.00;;;;;29.31;30.13;101942.16;5052438;28;46101;-77
2022/07/15 10:41:03;;;;;;;;;2.00;2.00;;;;;29.34;30.93;101941.78;5052375;28;45440;-77
2022/07/15 10:43:42;;;;;;;;;3.00;2.33;;;;;29.35;30.79;101938.06;5043300;28;45406;-78
2022/07/15 10:46:18;;;;;;;;;3.00;3.00;;;;;29.35;31.08;101929.84;5050346;28;45815;-77
2022/07/15 10:48:44;;;;;;;;;1.33;1.33;;;;;29.37;30.76;101944.19;5039112;28;45428;-78
2022/07/15 10:51:09;;;;;;;;;4.33;3.00;;;;;29.39;30.83;101931.16;5052839;28;45608;-77
2022/07/15 10:53:43;;;;;;;;;4.00;3.00;;;;;29.43;30.88;101937.16;5052491;28;45539;-77
2022/07/15 10:56:30;;;;;;;;;3.00;3.00;;;;;29.44;31.06;101927.91;5050665;28;45394;-75
2022/07/15 10:59:23;;;;;;;;;3.00;3.00;;;;;29.49;30.98;101913.69;5050732;28;46364;-75
2022/07/15 11:02:08;;;;;;;;;2.00;2.00;;;;;29.52;31.48;101916.09;5054651;28;45556;-78
2022/07/15 11:04:34;;;;;;;;;3.33;3.00;;;;;29.51;31.39;101917.97;5056062;28;45372;-79
2022/07/15 11:07:02;;;;;;;;;2.33;2.33;;;;;29.55;31.33;101922.03;5050404;28;46056;-78
2022/07/15 11:09:50;;;;;;;;;2.00;2.00;;;;;29.58;31.79;101915.34;5051793;28;46927;-78
2022/07/15 11:12:43;;;;;;;;;4.00;4.00;;;;;29.60;31.81;101907.84;5043496;28;45359;-76
2022/07/15 11:15:16;;;;;;;;;6.00;3.33;;;;;29.59;31.81;101906.97;5053529;28;45557;-77
2022/07/15 11:17:44;;;;;;;;;6.00;4.00;;;;;29.61;31.74;101906.78;5054335;28;46037;-77
2022/07/15 11:20:17;;;;;;;;;2.00;2.00;;;;;29.62;32.12;101905.75;5055133;28;45363;-75
2022/07/15 11:22:48;;;;;;;;;2.33;2.33;;;;;29.63;31.55;101895.69;5051461;28;45819;-76
2022/07/15 11:25:25;;;;;;;;;4.00;4.00;;;;;29.63;31.67;101901.16;5038637;28;45913;-76
2022/07/15 11:28:12;;;;;;;;;4.67;2.67;;;;;29.64;31.54;101900.09;5046752;28;45441;-76
2022/07/15 11:30:44;;;;;;;;;3.67;3.67;;;;;29.65;31.65;101899.06;5041573;28;46196;-76
2022/07/15 11:33:13;;;;;;;;;3.00;3.00;;;;;29.67;31.91;101903.31;5054344;28;45375;-75
2022/07/15 11:35:47;;;;;;;;;2.00;2.00;;;;;29.67;31.64;101903.31;5050062;28;45642;-76
2022/07/15 11:38:13;;;;;;;;;1.00;1.00;;;;;29.70;31.57;101907.56;5063941;28;45429;-76
2022/07/15 11:46:13;;;;;;;;;3.33;3.00;;;;;29.75;31.83;101896.09;5050402;28;45388;-76
2022/07/15 11:48:40;;;;;;;;;2.00;2.00;;;;;29.75;31.79;101886.00;5047800;28;45706;-79
2022/07/15 11:51:07;;;;;;;;;3.33;3.33;;;;;29.74;32.01;101884.28;5053004;28;45647;-78
2022/07/15 11:53:47;;;;;;;;;4.67;3.00;;;;;29.76;31.62;101878.66;5051218;28;45514;-78
2022/07/15 11:56:14;;;;;;;;;2.00;2.00;;;;;29.77;32.17;101878.47;5039270;28;45546;-76
2022/07/15 11:58:42;;;;;;;;;1.67;1.67;;;;;29.80;31.72;101874.50;5045219;28;45454;-76
2022/07/15 12:01:14;;;;;;;;;3.00;3.00;;;;;29.80;31.73;101879.97;5047828;28;45423;-74
2022/07/15 12:03:44;;;;;;;;;3.00;3.00;;;;;29.81;32.26;101877.06;5046360;28;45341;-75
2022/07/15 12:06:24;;;;;;;;;6.33;3.33;;;;;29.82;32.10;101870.56;5052710;28;45407;-74
2022/07/15 12:08:52;;;;;;;;;2.00;2.00;;;;;29.84;32.36;101871.22;5055090;28;45596;-77
2022/07/15 12:11:30;;;;;;;;;2.00;2.00;;;;;29.87;32.01;101866.41;5041048;28;46226;-77
2022/07/15 12:13:59;;;;;;;;;1.33;1.33;;;;;29.85;32.08;101872.94;5053666;28;45460;-75
2022/07/15 12:16:36;;;;;;;;;1.00;1.00;;;;;29.88;31.91;101876.31;5055159;28;45442;-75
2022/07/15 12:19:05;;;;;;;;;3.33;3.00;;;;;29.90;32.36;101868.75;5049309;28;45414;-72
2022/07/15 12:21:32;;;;;;;;;1.33;1.33;;;;;29.91;31.70;101867.75;5050495;28;45922;-75
2022/07/15 12:24:18;;;;;;;;;2.00;2.00;;;;;29.92;31.79;101869.44;5053399;28;45635;-74
2022/07/15 12:26:50;;;;;;;;;3.00;2.00;;;;;29.94;32.59;101864.63;5055189;28;45458;-75
2022/07/15 12:29:17;;;;;;;;;1.67;1.67;;;;;29.94;32.21;101860.00;5051981;28;45532;-77
2022/07/15 12:31:50;;;;;;;;;3.33;2.00;;;;;29.93;31.91;101868.41;5049613;28;46452;-74
2022/07/15 12:34:15;;;;;;;;;4.00;3.00;;;;;29.96;32.50;101868.03;5052541;28;45469;-73
2022/07/15 12:36:41;;;;;;;;;5.00;2.67;;;;;29.96;32.79;101868.03;5053623;28;45339;-73
2022/07/15 12:39:11;;;;;;;;;1.00;1.00;;;;;29.95;33.00;101869.06;5053494;28;45641;-73
2022/07/15 12:41:39;;;;;;;;;2.33;2.33;;;;;29.91;32.93;101875.97;5043702;28;45363;-74
2022/07/15 12:44:06;;;;;;;;;3.67;2.33;;;;;29.68;33.90;101866.72;5047880;28;45446;-73
2022/07/15 12:46:51;;;;;;;;;2.00;2.00;;;;;29.45;34.14;101848.44;5053060;28;45306;-74
2022/07/15 12:49:42;;;;;;;;;6.33;4.00;;;;;29.26;35.08;101868.03;5045371;28;45590;-73
2022/07/15 12:52:33;;;;;;;;;5.00;2.00;;;;;29.12;35.28;101878.72;5034677;28;46248;-75
2022/07/15 12:55:12;;;;;;;;;3.67;2.33;;;;;28.99;35.65;101865.63;5038800;28;45524;-74
2022/07/15 12:57:37;;;;;;;;;0.33;0.33;;;;;28.86;35.93;101862.59;5035004;28;46172;-74
2022/07/15 13:00:11;;;;;;;;;1.00;1.00;;;;;28.79;35.75;101867.91;5034953;28;46107;-73
2022/07/15 13:03:09;;;;;;;;;1.67;1.67;;;;;28.76;36.58;101852.72;5038335;27;48603;-72
2022/07/15 13:05:39;;;;;;;;;2.00;2.00;;;;;28.73;36.84;101864.00;5034929;28;45906;-73
2022/07/15 13:08:09;;;;;;;;;2.00;2.00;;;;;28.75;37.22;101867.41;5052386;28;45486;-73
2022/07/15 13:10:36;;;;;;;;;4.00;1.67;;;;;28.74;36.52;101863.00;5038072;28;45622;-73
2022/07/15 13:13:03;;;;;;;;;2.33;1.00;;;;;28.75;37.31;101864.69;5035200;28;46102;-73
2022/07/15 13:15:28;;;;;;;;;1.00;1.00;;;;;28.74;36.91;101873.91;5036502;28;45570;-72
2022/07/15 13:17:54;;;;;;;;;0.00;0.00;;;;;28.72;37.72;101865.03;5037205;28;45514;-74
2022/07/15 13:20:19;;;;;;;;;1.00;1.00;;;;;28.69;37.22;101867.28;5035519;28;45717;-73
2022/07/15 13:22:45;;;;;;;;;1.00;1.00;;;;;28.66;37.15;101868.47;5034058;28;47114;-73
2022/07/15 13:25:11;;;;;;;;;2.00;2.00;;;;;28.62;38.04;101858.91;5036461;28;46090;-72
2022/07/15 13:27:37;;;;;;;;;5.00;3.00;;;;;28.58;37.69;101860.28;5035202;28;45648;-72
2022/07/15 13:30:04;;;;;;;;;1.00;1.00;;;;;28.54;38.40;101852.44;5035546;28;47170;-75
2022/07/15 13:32:29;;;;;;;;;2.00;2.00;;;;;28.53;38.03;101853.47;5036106;28;46606;-73
2022/07/15 13:34:55;;;;;;;;;1.00;1.00;;;;;28.51;37.90;101851.97;5030420;28;46315;-73
2022/07/15 13:37:20;;;;;;;;;0.33;0.33;;;;;28.52;38.12;101848.19;5033560;28;46592;-72
2022/07/15 13:39:45;;;;;;;;;1.00;1.00;;;;;28.51;38.56;101854.69;5036491;28;45797;-73
2022/07/15 13:42:11;;;;;;;;;3.00;1.00;;;;;28.49;38.42;101852.13;5034863;28;46169;-74
2022/07/15 13:44:36;;;;;;;;;2.67;1.67;;;;;28.49;38.80;101841.19;5035521;28;45607;-73
2022/07/15 13:47:02;;;;;;;;;1.33;1.33;;;;;28.53;38.76;101847.19;5032042;28;46393;-73
2022/07/15 13:52:11;;;;;;;;;0.00;0.00;;;;;28.62;38.34;101839.81;5038940;28;45909;-72
2022/07/15 13:54:37;;;;;;;;;0.67;0.67;;;;;28.64;38.94;101844.06;5044989;28;45690;-72
2022/07/15 13:57:02;;;;;;;;;1.00;1.00;;;;;28.67;38.33;101843.72;5031790;28;45595;-73
2022/07/15 13:59:28;;;;;;;;;1.67;1.67;;;;;28.71;38.27;101829.69;5036283;28;45632;-74
2022/07/15 14:01:53;;;;;;;;;1.67;1.67;;;;;28.66;38.27;101833.78;5034621;28;46317;-74
2022/07/15 14:04:19;;;;;;;;;2.00;2.00;;;;;28.61;37.69;101824.44;5037163;28;45670;-74
2022/07/15 14:06:44;;;;;;;;;3.00;1.67;;;;;28.60;36.84;101829.06;5033177;28;45640;-73
2022/07/15 14:09:10;;;;;;;;;1.00;1.00;;;;;28.59;36.95;101824.63;5037979;28;49457;-73
2022/07/15 14:11:35;;;;;;;;;3.00;3.00;;;;;28.60;37.14;101817.28;5034562;28;46134;-73
2022/07/15 14:14:01;;;;;;;;;2.00;2.00;;;;;28.60;36.77;101820.84;5035526;28;46229;-74
2022/07/15 14:16:27;;;;;;;;;1.00;1.00;;;;;28.62;37.35;101823.41;5036854;28;46144;-73
2022/07/15 14:18:52;;;;;;;;;2.00;1.33;;;;;28.62;37.72;101813.34;5034779;28;46077;-73
2022/07/15 14:21:18;;;;;;;;;2.67;2.00;;;;;28.78;37.02;101822.50;5035963;28;46467;-72
2022/07/15 14:23:44;;;;;;;;;1.00;1.00;;;;;28.93;36.90;101825.34;5047476;28;45659;-72
2022/07/15 14:26:11;;;;;;;;;4.00;2.00;;;;;29.06;36.44;101822.88;5049226;28;45466;-72
2022/07/15 14:28:38;;;;;;;;;1.33;1.33;;;;;29.18;36.04;101817.84;5033772;28;45424;-73
2022/07/15 14:31:05;;;;;;;;;2.33;2.00;;;;;29.31;35.85;101816.41;5033535;28;45781;-73
2022/07/15 14:33:30;;;;;;;;;2.00;2.00;;;;;29.41;36.14;101818.88;5035068;28;45633;-71
2022/07/15 14:35:55;;;;;;;;;1.33;1.33;;;;;29.52;36.87;101817.63;5036133;28;46256;-71
2022/07/15 14:38:21;;;;;;;;;3.00;2.00;;;;;29.59;36.29;101813.13;5034156;28;45419;-71
2022/07/15 14:40:46;;;;;;;;;1.33;1.33;;;;;29.65;36.46;101812.41;5033864;28;48198;-71
2022/07/15 14:43:12;;;;;;;;;1.67;1.00;;;;;29.71;35.67;101816.28;5034650;28;47182;-71
2022/07/15 14:45:38;;;;;;;;;1.67;1.67;;;;;29.75;35.18;101820.31;5033267;28;45826;-70
2022/07/15 14:48:04;;;;;;;;;1.33;1.33;;;;;29.70;35.52;101809.94;5033227;28;45830;-72
2022/07/15 14:50:29;;;;;;;;;7.00;2.33;;;;;29.45;36.05;101809.28;5034324;28;46838;-72
2022/07/15 14:52:54;;;;;;;;;2.00;2.00;;;;;29.27;36.59;101809.59;5032846;28;45626;-72
2022/07/15 14:55:20;;;;;;;;;3.00;2.00;;;;;29.14;35.94;101813.75;5032980;28;45796;-72
2022/07/15 14:57:45;;;;;;;;;1.67;1.67;;;;;29.05;36.45;101806.66;5033912;28;45632;-72
2022/07/15 15:00:11;;;;;;;;;1.00;1.00;;;;;29.00;36.54;101806.34;5035269;28;45705;-72
2022/07/15 15:02:36;;;;;;;;;1.00;1.00;;;;;28.93;36.75;101806.22;5037172;28;45548;-73
2022/07/15 15:05:02;;;;;;;;;1.00;1.00;;;;;28.86;36.65;101810.69;5033497;28;45557;-73
2022/07/15 15:07:28;;;;;;;;;1.33;1.33;;;;;28.82;37.08;101801.13;5032997;28;45642;-73
2022/07/15 15:09:53;;;;;;;;;2.00;2.00;;;;;28.71;37.27;101797.78;5035538;28;46377;-73
2022/07/15 15:12:18;;;;;;;;;1.33;1.33;;;;;28.64;37.50;101802.22;5053829;28;48343;-72
2022/07/15 15:14:44;;;;;;;;;1.00;1.00;;;;;28.58;37.39;101800.22;5050354;28;45556;-73
2022/07/15 15:17:09;;;;;;;;;2.00;2.00;;;;;28.53;37.79;101807.06;5052606;28;45598;-72
2022/07/15 15:19:36;;;;;;;;;2.00;2.00;;;;;28.49;37.93;101802.16;5055384;28;46762;-72
2022/07/15 15:22:02;;;;;;;;;4.00;2.67;;;;;28.47;37.50;101805.03;5044736;28;45448;-73
2022/07/15 15:24:27;;;;;;;;;3.67;2.00;;;;;28.46;37.97;101803.34;5054136;28;45593;-72
2022/07/15 15:26:54;;;;;;;;;3.00;3.00;;;;;28.49;38.02;101800.25;5055933;28;45928;-71
2022/07/15 15:29:20;;;;;;;;;3.00;1.00;;;;;28.53;37.36;101798.03;5054585;28;46338;-72
2022/07/15 15:31:47;;;;;;;;;3.00;1.00;;;;;28.57;38.06;101801.25;5043369;28;45462;-72
2022/07/15 15:34:13;;;;;;;;;3.00;3.00;;;;;28.58;37.32;101792.88;5055439;28;45449;-72
2022/07/15 15:36:38;;;;;;;;;1.00;1.00;;;;;28.58;37.99;101787.44;5050605;28;45628;-73
2022/07/15 15:39:04;;;;;;;;;1.00;1.00;;;;;28.59;37.95;101801.91;5055236;28;46235;-72
2022/07/15 15:41:29;;;;;;;;;2.00;2.00;;;;;28.58;37.65;101797.50;5045592;28;45676;-72
2022/07/15 15:43:54;;;;;;;;;2.00;1.00;;;;;28.54;37.97;101799.72;5055603;28;45328;-72
2022/07/15 15:46:20;;;;;;;;;3.67;3.00;;;;;28.49;37.84;101794.78;5051448;28;45503;-73
2022/07/15 15:48:45;;;;;;;;;1.00;1.00;;;;;28.48;37.66;101800.44;5054712;28;46103;-72
2022/07/15 15:51:10;;;;;;;;;1.67;1.67;;;;;28.46;37.57;101786.97;5053458;28;45593;-73
2022/07/15 15:53:36;;;;;;;;;2.00;2.00;;;;;28.50;37.91;101784.72;5049345;28;45497;-74
2022/07/15 15:56:02;;;;;;;;;1.00;1.00;;;;;28.52;37.48;101786.25;5041775;28;45400;-73
2022/07/15 15:58:28;;;;;;;;;3.67;3.00;;;;;28.56;37.74;101788.63;5055413;28;46494;-73
2022/07/15 16:00:53;;;;;;;;;2.00;2.00;;;;;28.54;37.46;101788.81;5036243;28;45872;-72
2022/07/15 16:03:18;;;;;;;;;3.33;2.00;;;;;28.48;37.41;101773.16;5043829;28;45937;-72
2022/07/15 16:05:44;;;;;;;;;1.00;1.00;;;;;28.47;38.14;101780.47;5048636;28;46070;-72
2022/07/15 16:08:09;;;;;;;;;0.67;0.67;;;;;28.44;38.14;101775.34;5053842;28;46180;-72
2022/07/15 16:10:35;;;;;;;;;4.00;3.00;;;;;28.44;38.19;101779.97;5041464;28;45333;-73
2022/07/15 16:13:00;;;;;;;;;2.00;2.00;;;;;28.44;38.19;101775.34;5052543;28;47886;-73
2022/07/15 16:15:25;;;;;;;;;0.67;0.67;;;;;28.43;37.69;101770.06;5055206;28;45399;-72
2022/07/15 16:17:51;;;;;;;;;3.00;1.67;;;;;28.41;37.73;101762.91;5053035;28;45876;-73